Time;durP1;ratioP1;P1;durP2;ratioP2;P2;SDS_P1;SDS_P2;PMS_P1;PMS_P2;Temp;Humidity;BMP_temperature;BMP_pressure;BME280_temperature;BME280_humidity;BME280_pressure;Samples;Min_cycle;Max_cycle;Signal;HPM_P1;HPM_P2
2020/12/03 00:00:31;;;;;;;128.35;42.40;;;-0.80;99.90;;;;;;5031861;28;20265;-72
2020/12/03 00:03:02;;;;;;;125.50;41.30;;;-0.80;99.90;;;;;;4998433;28;20073;-71
2020/12/03 00:05:29;;;;;;;124.22;43.67;;;-0.80;99.90;;;;;;5013501;28;20050;-72
2020/12/03 00:07:56;;;;;;;135.68;45.63;;;-0.80;99.90;;;;;;5009857;28;20488;-71
2020/12/03 00:10:24;;;;;;;137.50;45.30;;;-0.80;99.90;;;;;;5006459;28;20492;-74
2020/12/03 00:13:24;;;;;;;134.20;45.83;;;-0.90;99.90;;;;;;5030690;28;20451;-71
2020/12/03 00:15:57;;;;;;;134.45;44.83;;;-0.90;99.90;;;;;;5006182;28;20472;-72
2020/12/03 00:18:29;;;;;;;131.73;45.80;;;-0.90;99.90;;;;;;5013548;28;20085;-72
2020/12/03 00:20:57;;;;;;;139.77;44.83;;;-0.90;99.90;;;;;;5013314;28;20065;-74
2020/12/03 00:23:24;;;;;;;131.63;46.20;;;-0.90;99.90;;;;;;5031469;28;20119;-72
2020/12/03 00:25:54;;;;;;;133.18;45.42;;;-0.90;99.90;;;;;;5032239;28;20056;-72
2020/12/03 00:28:27;;;;;;;134.55;46.08;;;-0.80;99.90;;;;;;5012259;28;20046;-71
2020/12/03 00:30:54;;;;;;;135.93;43.13;;;-0.90;99.90;;;;;;5008661;28;20121;-73
2020/12/03 00:33:20;;;;;;;136.38;45.40;;;-0.90;99.90;;;;;;5025633;28;20060;-72
2020/12/03 00:35:49;;;;;;;135.93;48.17;;;-0.80;99.90;;;;;;5031552;28;20107;-72
2020/12/03 00:38:17;;;;;;;130.55;43.78;;;-0.80;99.90;;;;;;5020998;28;20529;-71
2020/12/03 00:40:44;;;;;;;116.97;43.13;;;-0.90;99.90;;;;;;5015409;28;20053;-72
2020/12/03 00:43:10;;;;;;;134.73;43.80;;;-0.80;99.90;;;;;;5002839;28;20081;-71
2020/12/03 00:45:36;;;;;;;119.13;45.92;;;-0.80;99.90;;;;;;5030906;28;20128;-71
2020/12/03 00:48:03;;;;;;;119.50;43.17;;;-0.70;99.90;;;;;;5031975;28;20057;-71
2020/12/03 00:50:30;;;;;;;116.78;43.53;;;-0.70;99.90;;;;;;5029173;28;20049;-72
2020/12/03 00:52:56;;;;;;;118.15;44.97;;;-0.70;99.90;;;;;;5027962;28;20456;-72
2020/12/03 00:55:23;;;;;;;111.15;44.55;;;-0.60;99.90;;;;;;5031538;28;20125;-72
2020/12/03 00:57:49;;;;;;;111.13;46.17;;;-0.60;99.90;;;;;;5013587;28;20445;-72
2020/12/03 01:00:18;;;;;;;108.53;42.97;;;-0.60;99.90;;;;;;5013006;28;20087;-72
2020/12/03 01:02:49;;;;;;;113.18;46.00;;;-0.60;99.90;;;;;;5007618;28;20559;-71
2020/12/03 01:05:18;;;;;;;105.95;43.83;;;-0.60;99.90;;;;;;5018183;28;20485;-72
2020/12/03 01:07:45;;;;;;;119.80;45.70;;;-0.60;99.90;;;;;;5026763;28;20061;-71
2020/12/03 01:10:19;;;;;;;119.43;43.92;;;-0.60;99.90;;;;;;5010458;28;20045;-72
2020/12/03 01:12:47;;;;;;;102.85;42.97;;;-0.60;99.90;;;;;;5030902;28;20041;-71
2020/12/03 01:15:14;;;;;;;111.43;44.05;;;-0.60;99.90;;;;;;5012628;28;20037;-72
2020/12/03 01:17:42;;;;;;;106.20;40.58;;;-0.60;99.90;;;;;;5004790;28;20137;-73
2020/12/03 01:20:10;;;;;;;107.35;42.15;;;-0.60;99.90;;;;;;5030192;28;20107;-72
2020/12/03 01:22:37;;;;;;;118.40;45.47;;;-0.60;99.90;;;;;;5030368;28;20080;-71
2020/12/03 01:25:06;;;;;;;130.07;49.10;;;-0.60;99.90;;;;;;5031303;28;20073;-72
2020/12/03 01:27:32;;;;;;;129.18;49.75;;;-0.60;99.90;;;;;;5023443;28;20045;-73
2020/12/03 01:29:58;;;;;;;122.80;46.97;;;-0.60;99.90;;;;;;5023187;28;20637;-73
2020/12/03 01:32:25;;;;;;;129.10;48.33;;;-0.60;99.90;;;;;;5029712;28;20457;-73
2020/12/03 01:34:51;;;;;;;124.53;47.72;;;-0.60;99.90;;;;;;5027972;28;20086;-72
2020/12/03 01:37:17;;;;;;;119.38;46.88;;;-0.50;99.90;;;;;;5028815;28;20448;-73
2020/12/03 01:39:45;;;;;;;128.38;46.63;;;-0.60;99.90;;;;;;5028869;28;20064;-73
2020/12/03 01:42:12;;;;;;;133.65;47.35;;;-0.60;99.90;;;;;;5010495;28;20412;-72
2020/12/03 01:44:48;;;;;;;118.25;48.22;;;-0.60;99.90;;;;;;5030175;28;20121;-72
2020/12/03 01:47:38;;;;;;;118.88;46.90;;;-0.60;99.90;;;;;;5019319;28;20422;-72
2020/12/03 01:50:07;;;;;;;128.90;48.47;;;-0.60;99.90;;;;;;5020023;28;20239;-73
2020/12/03 01:52:34;;;;;;;124.93;45.63;;;-0.60;99.90;;;;;;5010069;28;20129;-73
2020/12/03 01:55:02;;;;;;;132.13;47.70;;;-0.60;99.90;;;;;;5030804;28;20471;-72
2020/12/03 01:57:41;;;;;;;137.10;50.85;;;-0.70;99.90;;;;;;5030363;28;20500;-72
2020/12/03 02:00:16;;;;;;;136.05;51.63;;;-0.70;99.90;;;;;;5026511;28;20046;-75
2020/12/03 02:02:46;;;;;;;135.80;50.53;;;-0.70;99.90;;;;;;5007978;28;20421;-72
2020/12/03 02:05:26;;;;;;;130.00;52.42;;;-0.70;99.90;;;;;;5029729;28;20072;-72
2020/12/03 02:07:56;;;;;;;137.45;50.55;;;-0.70;99.90;;;;;;5011499;28;20385;-73
2020/12/03 02:10:25;;;;;;;127.35;49.05;;;-0.70;99.90;;;;;;5024827;28;20063;-72
2020/12/03 02:12:52;;;;;;;132.73;51.30;;;-0.70;99.90;;;;;;5009150;28;20057;-71
2020/12/03 02:15:20;;;;;;;133.23;50.10;;;-0.70;99.90;;;;;;5011064;28;20136;-74
2020/12/03 02:17:47;;;;;;;133.63;51.30;;;-0.70;99.90;;;;;;5026933;28;20061;-72
2020/12/03 02:20:20;;;;;;;121.20;47.33;;;-0.70;99.90;;;;;;5011457;28;20129;-73
2020/12/03 02:22:48;;;;;;;131.27;50.85;;;-0.60;99.90;;;;;;5011706;28;20467;-72
2020/12/03 02:25:15;;;;;;;118.80;48.42;;;-0.60;99.90;;;;;;5011979;28;20080;-73
2020/12/03 02:27:43;;;;;;;137.18;51.47;;;-0.60;99.90;;;;;;5028333;28;20057;-72
2020/12/03 02:30:12;;;;;;;143.57;51.85;;;-0.60;99.90;;;;;;5011090;28;20507;-74
2020/12/03 02:32:39;;;;;;;148.50;53.67;;;-0.70;99.90;;;;;;5007703;28;20061;-72
2020/12/03 02:35:09;;;;;;;160.43;54.15;;;-0.70;99.90;;;;;;5027910;28;20112;-73
2020/12/03 02:37:35;;;;;;;148.35;52.45;;;-0.70;99.90;;;;;;5028812;28;20157;-75
2020/12/03 02:40:04;;;;;;;144.50;53.17;;;-0.70;99.90;;;;;;5029519;28;20127;-74
2020/12/03 02:42:31;;;;;;;170.80;57.53;;;-0.70;99.90;;;;;;5016321;28;20058;-73
2020/12/03 02:44:57;;;;;;;157.40;54.80;;;-0.70;99.90;;;;;;5027769;28;20559;-71
2020/12/03 02:47:24;;;;;;;160.63;54.45;;;-0.70;99.90;;;;;;5023058;28;20224;-74
2020/12/03 02:49:52;;;;;;;152.00;54.33;;;-0.70;99.90;;;;;;5005026;28;20388;-72
2020/12/03 02:52:23;;;;;;;163.85;56.13;;;-0.70;99.90;;;;;;4997485;28;20103;-73
2020/12/03 02:54:51;;;;;;;159.27;55.45;;;-0.70;99.90;;;;;;5028707;28;20436;-72
2020/12/03 02:57:20;;;;;;;159.45;53.80;;;-0.70;99.90;;;;;;5011461;28;20068;-71
2020/12/03 02:59:48;;;;;;;155.45;55.78;;;-0.70;99.90;;;;;;5027238;28;20069;-72
2020/12/03 03:02:16;;;;;;;145.45;51.13;;;-0.70;99.90;;;;;;4997970;28;20414;-72
2020/12/03 03:04:43;;;;;;;147.82;52.38;;;-0.70;99.90;;;;;;5007296;28;20045;-73
2020/12/03 03:07:09;;;;;;;144.95;52.38;;;-0.70;99.90;;;;;;5023948;28;20369;-71
2020/12/03 03:09:36;;;;;;;147.80;53.15;;;-0.80;99.90;;;;;;5019034;28;20500;-73
2020/12/03 03:12:04;;;;;;;130.35;48.28;;;-0.80;99.90;;;;;;5018164;28;20493;-71
2020/12/03 03:14:32;;;;;;;134.48;50.15;;;-0.70;99.90;;;;;;5010077;28;20115;-73
2020/12/03 03:16:59;;;;;;;128.23;48.30;;;-0.70;99.90;;;;;;5027189;28;20057;-72
2020/12/03 03:19:32;;;;;;;135.68;49.85;;;-0.70;99.90;;;;;;5029025;28;20476;-72
2020/12/03 03:22:02;;;;;;;122.03;45.83;;;-0.80;99.90;;;;;;5012094;28;20080;-72
2020/12/03 03:24:31;;;;;;;124.90;48.17;;;-0.80;99.90;;;;;;5009565;28;20069;-73
2020/12/03 03:26:57;;;;;;;119.53;45.67;;;-0.80;99.90;;;;;;5009160;28;20080;-71
2020/12/03 03:29:25;;;;;;;114.82;46.47;;;-0.70;99.90;;;;;;5029132;28;20119;-71
2020/12/03 03:31:53;;;;;;;118.47;46.10;;;-0.70;99.90;;;;;;5018864;28;20042;-72
2020/12/03 03:34:19;;;;;;;120.18;46.03;;;-0.70;99.90;;;;;;5025229;28;20459;-71
2020/12/03 03:36:46;;;;;;;127.63;47.75;;;-0.80;99.90;;;;;;5027875;28;20503;-71
2020/12/03 03:39:19;;;;;;;123.80;45.75;;;-0.70;99.90;;;;;;5029487;28;20176;-71
2020/12/03 03:41:47;;;;;;;114.75;45.50;;;-0.70;99.90;;;;;;5020195;28;20045;-71
2020/12/03 03:44:14;;;;;;;117.95;45.92;;;-0.80;99.90;;;;;;5027539;28;20087;-72
2020/12/03 03:46:41;;;;;;;127.50;47.17;;;-0.70;99.90;;;;;;5027082;28;20381;-72
2020/12/03 03:49:07;;;;;;;120.35;45.95;;;-0.70;99.90;;;;;;5029184;28;20054;-73
2020/12/03 03:51:34;;;;;;;115.93;44.58;;;-0.70;99.90;;;;;;5006303;28;20100;-73
2020/12/03 03:54:00;;;;;;;127.80;48.88;;;-0.70;99.90;;;;;;5028934;28;20099;-72
2020/12/03 03:56:27;;;;;;;125.90;47.97;;;-0.70;99.90;;;;;;5028633;28;20186;-73
2020/12/03 03:58:54;;;;;;;118.20;47.05;;;-0.70;99.90;;;;;;5027883;28;20500;-73
2020/12/03 04:01:20;;;;;;;110.25;44.83;;;-0.70;99.90;;;;;;5017917;28;20084;-72
2020/12/03 04:03:47;;;;;;;110.40;44.40;;;-0.70;99.90;;;;;;5009960;28;20187;-73
2020/12/03 04:06:13;;;;;;;105.13;43.47;;;-0.70;99.90;;;;;;5028271;28;20077;-72
2020/12/03 04:08:40;;;;;;;101.40;41.85;;;-0.70;99.90;;;;;;5028206;28;20552;-73
2020/12/03 04:11:06;;;;;;;96.68;41.83;;;-0.60;99.90;;;;;;4999885;28;20133;-73
2020/12/03 04:13:32;;;;;;;96.88;41.00;;;-0.70;99.90;;;;;;5002543;28;20045;-73
2020/12/03 04:15:59;;;;;;;108.75;44.03;;;-0.70;99.90;;;;;;5027366;28;20124;-72
2020/12/03 04:18:26;;;;;;;99.22;40.70;;;-0.70;99.90;;;;;;5025175;28;20501;-73
2020/12/03 04:20:56;;;;;;;90.75;39.67;;;-0.60;99.90;;;;;;5013908;28;20124;-72
2020/12/03 04:23:23;;;;;;;102.50;42.80;;;-0.70;99.90;;;;;;5008514;28;20080;-73
2020/12/03 04:25:50;;;;;;;98.03;41.60;;;-0.70;99.90;;;;;;5028190;28;20140;-72
2020/12/03 04:28:17;;;;;;;99.05;42.08;;;-0.60;99.90;;;;;;5026019;28;20166;-72
2020/12/03 04:30:44;;;;;;;83.07;38.78;;;-0.70;99.90;;;;;;5023355;28;20469;-72
2020/12/03 04:33:10;;;;;;;86.53;37.90;;;-0.60;99.90;;;;;;5005163;28;20049;-72
2020/12/03 04:35:37;;;;;;;86.05;37.47;;;-0.60;99.90;;;;;;5028045;28;20388;-72
2020/12/03 04:38:09;;;;;;;77.00;36.10;;;-0.60;99.90;;;;;;5027937;28;20049;-72
2020/12/03 04:40:38;;;;;;;77.47;35.70;;;-0.50;99.90;;;;;;5011090;28;20058;-74
2020/12/03 04:43:32;;;;;;;74.10;35.88;;;-0.50;99.90;;;;;;5013861;28;20497;-71
2020/12/03 04:46:05;;;;;;;70.88;33.70;;;-0.50;99.90;;;;;;5028339;28;20107;-72
2020/12/03 04:48:42;;;;;;;;;;;-0.40;99.90;;;;;;5014583;28;20123;-72
2020/12/03 04:51:35;;;;;;;79.45;34.72;;;-0.40;99.90;;;;;;5027146;28;19931;-71
2020/12/03 04:54:34;;;;;;;75.63;36.42;;;-0.40;99.90;;;;;;5029460;28;20119;-74
2020/12/03 04:57:30;;;;;;;67.57;33.35;;;-0.30;99.90;;;;;;5012593;28;20437;-71
2020/12/03 05:00:11;;;;;;;64.97;32.60;;;-0.40;99.90;;;;;;5030400;28;20416;-73
2020/12/03 05:02:58;;;;;;;64.63;32.25;;;-0.30;99.90;;;;;;5012435;28;20151;-72
2020/12/03 05:05:38;;;;;;;61.08;32.00;;;-0.30;99.90;;;;;;5012998;28;20080;-73
2020/12/03 05:08:09;;;;;;;60.95;31.55;;;-0.30;99.90;;;;;;5025890;28;20081;-71
2020/12/03 05:10:45;;;;;;;58.95;29.90;;;-0.30;99.90;;;;;;5011958;28;20073;-74
2020/12/03 05:13:19;;;;;;;60.70;30.65;;;-0.20;99.90;;;;;;5019829;28;20443;-71
2020/12/03 05:15:52;;;;;;;60.85;31.25;;;-0.20;99.90;;;;;;5011747;28;20123;-72
2020/12/03 05:18:42;;;;;;;57.53;29.70;;;-0.20;99.90;;;;;;5022909;28;20408;-71
2020/12/03 05:21:14;;;;;;;53.67;28.45;;;-0.20;99.90;;;;;;5029347;28;20444;-71
2020/12/03 05:23:41;;;;;;;61.08;31.20;;;-0.30;99.90;;;;;;5028838;28;20045;-72
2020/12/03 05:26:20;;;;;;;55.58;29.33;;;-0.20;99.90;;;;;;5012852;28;20103;-72
2020/12/03 05:29:00;;;;;;;55.90;28.13;;;-0.20;99.90;;;;;;5028974;28;20128;-71
2020/12/03 05:31:45;;;;;;;57.22;29.08;;;-0.20;99.90;;;;;;5008463;28;20550;-71
2020/12/03 05:34:15;;;;;;;50.35;28.02;;;-0.20;99.90;;;;;;5027142;28;20084;-72
2020/12/03 05:36:53;;;;;;;51.38;28.70;;;-0.20;99.90;;;;;;5009921;28;20119;-71
2020/12/03 05:39:24;;;;;;;52.17;28.13;;;-0.20;99.90;;;;;;5024268;28;20073;-72
2020/12/03 05:42:05;;;;;;;51.70;27.10;;;-0.20;99.90;;;;;;5016650;28;20077;-71
2020/12/03 05:44:43;;;;;;;49.88;28.05;;;-0.10;99.90;;;;;;5013057;28;20133;-72
2020/12/03 05:47:34;;;;;;;52.60;28.50;;;-0.20;99.90;;;;;;5026633;28;20052;-72
2020/12/03 05:50:07;;;;;;;54.88;29.55;;;-0.10;99.90;;;;;;4986148;28;20080;-71
2020/12/03 05:52:36;;;;;;;54.28;28.70;;;-0.20;99.90;;;;;;5003028;28;20554;-74
2020/12/03 05:55:09;;;;;;;52.20;29.15;;;-0.20;99.90;;;;;;5028688;28;20053;-71
2020/12/03 05:57:44;;;;;;;53.67;30.27;;;-0.20;99.90;;;;;;5026638;28;20445;-78
2020/12/03 06:00:13;;;;;;;52.40;28.73;;;-0.20;99.90;;;;;;5026727;28;20123;-75
2020/12/03 06:03:00;;;;;;;56.40;28.58;;;-0.20;99.90;;;;;;5026156;28;20095;-73
2020/12/03 06:05:39;;;;;;;49.22;28.42;;;-0.20;99.90;;;;;;5028755;28;20083;-72
2020/12/03 06:08:33;;;;;;;49.03;27.92;;;-0.20;99.90;;;;;;5010784;28;20480;-72
2020/12/03 06:11:21;;;;;;;50.08;27.45;;;-0.20;99.90;;;;;;5010857;28;20117;-72
2020/12/03 06:14:10;;;;;;;54.08;28.63;;;-0.10;99.90;;;;;;5030295;28;20049;-72
2020/12/03 06:16:45;;;;;;;50.08;28.50;;;-0.10;99.90;;;;;;5016825;28;20482;-72
2020/12/03 06:19:30;;;;;;;55.50;28.77;;;-0.10;99.90;;;;;;5046758;28;20132;-73
2020/12/03 06:22:10;;;;;;;52.03;28.40;;;-0.10;99.90;;;;;;5044121;28;20440;-72
2020/12/03 06:25:14;;;;;;;54.45;29.42;;;-0.10;99.90;;;;;;5047991;28;20037;-72
2020/12/03 06:27:55;;;;;;;;;;;-0.10;99.90;;;;;;5043096;28;20087;-72
2020/12/03 06:30:29;;;;;;;42.03;23.40;;;-0.10;99.90;;;;;;5044606;28;20368;-74
2020/12/03 06:33:26;;;;;;;44.05;24.58;;;-0.10;99.90;;;;;;5046061;28;20542;-73
2020/12/03 06:36:20;;;;;;;46.05;24.77;;;-0.10;99.90;;;;;;5048789;28;20258;-72
2020/12/03 06:39:20;;;;;;;46.35;25.40;;;-0.10;99.90;;;;;;5037014;28;20338;-73
2020/12/03 06:41:56;;;;;;;47.10;24.50;;;-0.10;99.90;;;;;;5043076;28;20766;-71
2020/12/03 06:44:36;;;;;;;47.97;24.85;;;-0.10;99.90;;;;;;5048326;28;20503;-73
2020/12/03 06:47:25;;;;;;;47.85;25.60;;;-0.10;99.90;;;;;;5045233;28;20041;-71
2020/12/03 06:50:02;;;;;;;39.28;22.73;;;-0.10;99.90;;;;;;5045875;28;20049;-72
2020/12/03 06:53:05;;;;;;;37.58;21.67;;;-0.10;99.90;;;;;;5037653;28;20563;-72
2020/12/03 06:55:50;;;;;;;37.75;20.10;;;0.00;99.90;;;;;;5055775;28;20168;-72
2020/12/03 06:58:43;;;;;;;38.97;20.02;;;0.00;99.90;;;;;;5046840;28;20083;-72
2020/12/03 07:01:39;;;;;;;36.75;21.50;;;0.00;99.90;;;;;;5040460;28;20068;-72
2020/12/03 07:04:39;;;;;;;35.83;21.88;;;0.00;99.90;;;;;;5040230;28;20041;-75
2020/12/03 07:07:25;;;;;;;38.75;21.05;;;0.00;99.90;;;;;;5034379;28;20074;-74
2020/12/03 07:10:13;;;;;;;34.03;19.92;;;0.00;99.90;;;;;;5045847;28;20053;-72
2020/12/03 07:13:03;;;;;;;33.55;19.65;;;0.10;99.90;;;;;;5047303;28;20569;-73
2020/12/03 07:16:02;;;;;;;29.40;17.10;;;0.10;99.90;;;;;;5003181;28;20506;-73
2020/12/03 07:18:47;;;;;;;29.23;17.23;;;0.10;99.90;;;;;;5026583;28;20049;-72
2020/12/03 07:21:24;;;;;;;24.38;15.70;;;0.10;99.90;;;;;;5028575;28;20084;-71
2020/12/03 07:24:08;;;;;;;25.00;16.45;;;0.20;99.90;;;;;;5016188;28;20228;-71
2020/12/03 07:27:10;;;;;;;27.60;16.08;;;0.10;99.90;;;;;;5008849;28;20069;-73
2020/12/03 07:30:12;;;;;;;23.27;14.17;;;0.20;99.90;;;;;;5010890;28;20053;-72
2020/12/03 07:32:56;;;;;;;22.00;14.45;;;0.20;99.90;;;;;;4986350;28;20350;-72
2020/12/03 07:35:30;;;;;;;25.25;15.38;;;0.20;99.90;;;;;;5006480;28;20181;-72
2020/12/03 07:38:05;;;;;;;22.63;14.52;;;0.20;99.90;;;;;;5004227;28;20802;-72
2020/12/03 07:40:35;;;;;;;29.42;16.15;;;0.20;99.90;;;;;;5027276;28;20111;-72
2020/12/03 07:43:05;;;;;;;25.15;16.08;;;0.10;99.90;;;;;;5029258;28;20076;-72
2020/12/03 07:45:35;;;;;;;31.20;18.25;;;0.10;99.90;;;;;;5010804;28;20057;-72
2020/12/03 07:48:09;;;;;;;37.00;20.52;;;0.10;99.90;;;;;;5021581;28;20140;-72
2020/12/03 07:50:38;;;;;;;28.92;17.50;;;0.10;99.90;;;;;;5025077;28;20049;-72
2020/12/03 07:53:23;;;;;;;33.22;18.40;;;0.10;99.90;;;;;;5011123;28;20080;-71
2020/12/03 07:55:51;;;;;;;33.38;19.25;;;0.10;99.90;;;;;;5010982;28;20127;-71
2020/12/03 07:58:40;;;;;;;31.27;19.40;;;0.10;99.90;;;;;;4999923;28;20046;-72
2020/12/03 08:01:30;;;;;;;37.03;19.88;;;0.10;99.90;;;;;;5026914;28;20049;-72
2020/12/03 08:03:58;;;;;;;36.72;20.15;;;0.10;99.90;;;;;;5027503;28;20050;-71
2020/12/03 08:06:30;;;;;;;34.55;20.58;;;0.10;99.90;;;;;;5028053;28;20338;-73
2020/12/03 08:09:00;;;;;;;39.35;22.33;;;0.10;99.90;;;;;;5027317;28;20045;-72
2020/12/03 08:11:56;;;;;;;36.03;20.70;;;0.10;99.90;;;;;;5022013;28;20125;-73
2020/12/03 08:14:37;;;;;;;40.85;21.70;;;0.20;99.90;;;;;;5028876;28;20087;-72
2020/12/03 08:17:25;;;;;;;40.08;22.92;;;0.10;99.90;;;;;;5023813;28;20046;-71
2020/12/03 08:20:04;;;;;;;38.35;22.65;;;0.10;99.90;;;;;;5013793;28;20045;-73
2020/12/03 08:22:42;;;;;;;44.38;24.40;;;0.10;99.90;;;;;;5014377;28;20061;-72
2020/12/03 08:25:23;;;;;;;40.15;22.90;;;0.20;99.90;;;;;;5031870;28;20073;-72
2020/12/03 08:27:52;;;;;;;41.50;24.45;;;0.20;99.90;;;;;;5007665;28;20054;-72
2020/12/03 08:30:36;;;;;;;42.20;22.13;;;0.20;99.90;;;;;;5013718;28;20049;-72
2020/12/03 08:33:04;;;;;;;43.80;25.02;;;0.30;99.90;;;;;;5016057;28;20045;-72
2020/12/03 08:35:31;;;;;;;43.22;24.65;;;0.30;99.90;;;;;;5005400;28;20109;-73
2020/12/03 08:38:01;;;;;;;39.63;23.58;;;0.30;99.90;;;;;;5024953;28;20060;-71
2020/12/03 08:40:30;;;;;;;40.53;23.38;;;0.30;99.90;;;;;;5013864;28;20053;-72
2020/12/03 08:43:00;;;;;;;42.03;25.77;;;0.40;99.90;;;;;;5014222;28;20057;-72
2020/12/03 08:45:27;;;;;;;38.40;22.65;;;0.40;99.90;;;;;;5029510;28;20330;-73
2020/12/03 08:47:55;;;;;;;36.72;22.65;;;0.40;99.90;;;;;;5030592;28;20077;-72
2020/12/03 08:50:22;;;;;;;40.78;22.77;;;0.40;99.90;;;;;;5031470;28;20045;-72
2020/12/03 08:52:49;;;;;;;39.40;23.00;;;0.40;99.90;;;;;;5013304;28;20073;-72
2020/12/03 08:55:16;;;;;;;35.60;21.63;;;0.40;99.90;;;;;;5008524;28;20042;-71
2020/12/03 08:57:45;;;;;;;39.15;23.73;;;0.40;99.90;;;;;;5025705;28;20056;-72
2020/12/03 09:00:17;;;;;;;38.53;23.30;;;0.40;99.90;;;;;;5013148;28;20041;-73
2020/12/03 09:02:46;;;;;;;35.40;21.98;;;0.40;99.90;;;;;;5010956;28;20061;-72
2020/12/03 09:05:15;;;;;;;36.28;21.45;;;0.40;99.90;;;;;;5007285;28;20427;-72
2020/12/03 09:07:47;;;;;;;34.38;20.48;;;0.50;99.90;;;;;;5019009;28;20056;-72
2020/12/03 09:10:15;;;;;;;36.03;21.45;;;0.50;99.90;;;;;;5030970;28;20107;-72
2020/12/03 09:12:46;;;;;;;35.60;21.10;;;0.50;99.90;;;;;;5012710;28;20055;-72
2020/12/03 09:15:16;;;;;;;31.23;19.52;;;0.50;99.90;;;;;;5020794;28;20071;-72
2020/12/03 09:17:49;;;;;;;32.75;20.23;;;0.50;99.90;;;;;;5027746;28;20064;-72
2020/12/03 09:20:16;;;;;;;29.38;18.10;;;0.60;99.90;;;;;;5029817;28;20528;-72
2020/12/03 09:22:43;;;;;;;32.40;18.65;;;0.60;99.90;;;;;;5030110;28;20567;-72
2020/12/03 09:25:12;;;;;;;29.02;17.92;;;0.70;99.90;;;;;;5028978;28;20114;-72
2020/12/03 09:27:47;;;;;;;31.55;19.30;;;0.70;99.90;;;;;;5007420;28;20156;-75
2020/12/03 09:30:17;;;;;;;29.13;19.10;;;0.80;99.90;;;;;;5012134;28;20041;-72
2020/12/03 09:32:49;;;;;;;29.70;18.15;;;0.80;99.90;;;;;;5008324;28;20049;-71
2020/12/03 09:35:17;;;;;;;29.73;18.38;;;0.80;99.90;;;;;;5029472;28;20441;-72
2020/12/03 09:37:44;;;;;;;30.52;17.10;;;0.80;99.90;;;;;;5029623;28;20052;-72
2020/12/03 09:40:11;;;;;;;30.10;18.67;;;0.70;99.90;;;;;;5030010;28;20045;-72
2020/12/03 09:42:48;;;;;;;32.22;20.05;;;0.70;99.90;;;;;;5026438;28;20084;-71
2020/12/03 09:45:22;;;;;;;31.35;20.00;;;0.80;99.90;;;;;;5016128;28;20041;-70
2020/12/03 09:47:50;;;;;;;31.75;19.48;;;0.90;99.90;;;;;;5005533;28;20061;-71
2020/12/03 09:50:22;;;;;;;28.52;18.00;;;1.00;99.90;;;;;;5029408;28;20050;-71
2020/12/03 09:52:50;;;;;;;32.85;18.38;;;0.90;99.90;;;;;;5019424;28;20061;-72
2020/12/03 09:55:17;;;;;;;29.10;17.50;;;0.90;99.90;;;;;;5009061;28;20049;-71
2020/12/03 09:58:04;;;;;;;25.42;16.02;;;0.90;99.90;;;;;;5023363;28;20104;-72
2020/12/03 10:00:33;;;;;;;28.48;16.13;;;0.90;99.90;;;;;;5015685;28;20054;-72
2020/12/03 10:03:05;;;;;;;26.10;16.40;;;1.00;99.90;;;;;;5024437;28;20501;-71
2020/12/03 10:06:02;;;;;;;25.65;15.45;;;1.10;99.90;;;;;;5027585;28;20199;-73
2020/12/03 10:08:48;;;;;;;23.33;13.82;;;1.30;99.90;;;;;;5023728;28;20088;-73
2020/12/03 10:11:45;;;;;;;22.58;14.02;;;1.50;99.90;;;;;;5016688;28;20405;-71
2020/12/03 10:14:37;;;;;;;19.30;12.07;;;1.40;99.90;;;;;;5017342;28;20512;-72
2020/12/03 10:17:14;;;;;;;22.27;12.20;;;1.30;99.90;;;;;;5023723;28;20103;-71
2020/12/03 10:19:43;;;;;;;20.55;13.13;;;1.30;99.90;;;;;;5029769;28;20061;-70
2020/12/03 10:22:28;;;;;;;22.02;13.98;;;1.30;99.90;;;;;;5029506;28;20131;-72
2020/12/03 10:25:20;;;;;;;20.52;12.48;;;1.30;99.90;;;;;;5005632;28;20768;-70
2020/12/03 10:28:01;;;;;;;18.80;12.32;;;1.20;99.90;;;;;;4994694;28;20124;-71
2020/12/03 10:30:38;;;;;;;19.90;12.20;;;1.30;99.90;;;;;;5028343;28;20796;-72
2020/12/03 10:33:15;;;;;;;20.02;12.82;;;1.30;99.90;;;;;;5027139;28;20045;-71
2020/12/03 10:35:44;;;;;;;19.48;11.95;;;1.30;99.90;;;;;;5028022;28;20053;-71
2020/12/03 10:38:24;;;;;;;22.40;11.93;;;1.30;99.90;;;;;;5010960;28;20511;-73
2020/12/03 10:40:54;;;;;;;21.55;12.35;;;1.30;99.90;;;;;;5011972;28;20076;-72
2020/12/03 10:43:29;;;;;;;21.27;12.23;;;1.20;99.90;;;;;;5001913;28;20053;-71
2020/12/03 10:45:59;;;;;;;19.73;11.68;;;1.20;99.90;;;;;;5023374;28;20123;-71
2020/12/03 10:48:34;;;;;;;18.08;12.05;;;1.20;99.90;;;;;;5019389;28;20643;-71
2020/12/03 10:51:10;;;;;;;19.95;12.10;;;1.20;99.90;;;;;;5029353;28;20049;-72
2020/12/03 10:53:38;;;;;;;21.23;11.52;;;1.20;99.90;;;;;;5019259;28;20115;-72
2020/12/03 10:56:12;;;;;;;19.75;12.18;;;1.30;99.90;;;;;;5014704;28;20053;-71
2020/12/03 10:59:00;;;;;;;24.55;14.20;;;1.30;99.90;;;;;;5026195;28;20045;-71
2020/12/03 11:01:30;;;;;;;25.83;12.90;;;1.40;99.90;;;;;;5020930;28;20045;-73
2020/12/03 11:04:09;;;;;;;21.92;12.43;;;1.40;99.90;;;;;;5010743;28;20099;-71
2020/12/03 11:06:35;;;;;;;23.92;12.02;;;1.40;99.90;;;;;;5004151;28;20085;-72
2020/12/03 11:09:04;;;;;;;21.98;12.57;;;1.40;99.90;;;;;;5015199;28;20141;-72
2020/12/03 11:11:33;;;;;;;18.25;11.65;;;1.40;99.90;;;;;;5021303;28;20464;-73
2020/12/03 11:14:00;;;;;;;18.25;11.85;;;1.40;99.90;;;;;;4993190;28;20120;-71
2020/12/03 11:16:31;;;;;;;22.40;12.38;;;1.40;99.90;;;;;;5019764;28;20063;-74
2020/12/03 11:19:22;;;;;;;22.23;11.50;;;1.40;99.90;;;;;;5047493;28;20144;-72
2020/12/03 11:22:40;;;;;;;20.30;12.50;;;1.40;99.90;;;;;;5046886;28;20041;-71
2020/12/03 11:25:10;;;;;;;23.95;13.23;;;1.40;99.90;;;;;;5023215;28;20044;-71
2020/12/03 11:27:37;;;;;;;19.83;12.57;;;1.30;99.90;;;;;;5046837;28;20048;-71
2020/12/03 11:30:18;;;;;;;26.40;13.88;;;1.30;99.90;;;;;;5043600;28;20547;-71
2020/12/03 11:32:47;;;;;;;20.45;12.85;;;1.30;99.90;;;;;;5041965;28;20075;-73
2020/12/03 11:35:31;;;;;;;19.45;12.80;;;1.40;99.90;;;;;;5028772;28;20168;-72
2020/12/03 11:38:04;;;;;;;27.17;14.35;;;1.40;99.90;;;;;;5041710;28;20064;-71
2020/12/03 11:46:23;;;;;;;23.02;12.52;;;1.40;99.90;;;;;;5047395;28;20357;-71
2020/12/03 11:48:56;;;;;;;19.98;11.38;;;1.50;99.90;;;;;;5050201;28;20052;-72
2020/12/03 11:51:37;;;;;;;21.25;12.25;;;1.50;99.90;;;;;;5052480;28;20045;-75
2020/12/03 11:54:08;;;;;;;20.23;11.77;;;1.50;99.90;;;;;;5049450;28;20087;-72
2020/12/03 11:56:38;;;;;;;22.50;12.48;;;1.60;99.90;;;;;;5051255;28;20116;-71
2020/12/03 11:59:21;;;;;;;18.98;11.35;;;1.50;99.90;;;;;;5052026;28;20136;-71
2020/12/03 12:01:51;;;;;;;19.13;11.63;;;1.50;99.90;;;;;;5050597;28;20482;-72
2020/12/03 12:04:21;;;;;;;20.27;12.38;;;1.60;99.90;;;;;;5037856;28;20073;-73
2020/12/03 12:07:19;;;;;;;17.70;11.32;;;1.60;99.90;;;;;;5045109;28;20164;-71
2020/12/03 12:12:13;;;;;;;20.73;12.27;;;1.60;99.90;;;;;;5051885;28;20087;-72
2020/12/03 12:14:40;;;;;;;18.58;12.23;;;1.60;99.90;;;;;;5041111;28;20052;-73
2020/12/03 12:17:07;;;;;;;21.80;12.57;;;1.70;99.90;;;;;;5036648;28;20529;-73
2020/12/03 12:19:34;;;;;;;21.98;12.88;;;1.80;99.90;;;;;;5032702;28;20079;-72
2020/12/03 12:22:02;;;;;;;19.83;12.20;;;1.80;99.90;;;;;;5031880;28;20156;-72
2020/12/03 12:24:30;;;;;;;18.60;12.10;;;1.80;99.90;;;;;;5017395;28;20111;-73
2020/12/03 12:26:56;;;;;;;24.35;13.90;;;1.90;99.90;;;;;;5019375;28;20148;-72
2020/12/03 12:29:24;;;;;;;19.52;12.15;;;1.80;99.90;;;;;;5031444;28;20111;-74
2020/12/03 12:31:52;;;;;;;19.52;11.85;;;1.80;99.90;;;;;;5019879;28;20528;-71
2020/12/03 12:34:19;;;;;;;21.40;13.85;;;1.80;99.90;;;;;;5014157;28;20076;-74
2020/12/03 12:36:46;;;;;;;22.70;11.88;;;1.80;99.90;;;;;;5031436;28;20045;-72
2020/12/03 12:39:14;;;;;;;23.75;11.68;;;1.70;99.90;;;;;;5017756;28;20050;-71
2020/12/03 12:41:40;;;;;;;20.33;12.45;;;1.70;99.90;;;;;;5019266;28;20352;-73
2020/12/03 12:44:07;;;;;;;19.10;11.93;;;1.80;99.90;;;;;;5031481;28;20473;-73
2020/12/03 12:46:33;;;;;;;24.17;14.20;;;1.80;99.90;;;;;;5030265;28;20041;-70
2020/12/03 12:48:59;;;;;;;28.70;13.23;;;1.80;99.90;;;;;;5030866;28;20100;-71
2020/12/03 12:51:26;;;;;;;22.25;13.52;;;1.90;99.90;;;;;;5018695;28;20151;-73
2020/12/03 12:53:52;;;;;;;20.73;12.65;;;1.90;99.90;;;;;;5030892;28;20053;-71
2020/12/03 12:56:19;;;;;;;18.23;12.40;;;1.90;99.90;;;;;;5031637;28;20472;-71
2020/12/03 12:58:46;;;;;;;21.35;13.55;;;2.00;99.90;;;;;;5005982;28;20049;-71
2020/12/03 13:01:12;;;;;;;22.13;14.68;;;2.00;99.90;;;;;;5023498;28;20123;-71
2020/12/03 13:03:39;;;;;;;23.00;14.48;;;2.00;99.90;;;;;;5028806;28;20506;-73
2020/12/03 13:06:05;;;;;;;31.80;17.00;;;2.00;99.90;;;;;;5004907;28;20046;-71
2020/12/03 13:08:32;;;;;;;23.90;14.23;;;2.10;99.90;;;;;;5012557;28;20084;-72